sensor_id;sensor_type;location;lat;lon;timestamp;temperature;humidity
1812;DHT22;904;47.814;11.134;2023-01-29T00:02:04;-1.00;82.40
1812;DHT22;904;47.814;11.134;2023-01-29T00:04:31;-1.00;82.90
1812;DHT22;904;47.814;11.134;2023-01-29T00:07:00;-0.90;82.90
1812;DHT22;904;47.814;11.134;2023-01-29T00:09:33;-0.90;82.30
1812;DHT22;904;47.814;11.134;2023-01-29T00:12:00;-0.90;83.10
1812;DHT22;904;47.814;11.134;2023-01-29T00:14:27;-0.90;83.30
1812;DHT22;904;47.814;11.134;2023-01-29T00:16:55;-0.80;83.70
1812;DHT22;904;47.814;11.134;2023-01-29T00:19:25;-0.80;83.70
1812;DHT22;904;47.814;11.134;2023-01-29T00:21:52;-0.80;83.70
1812;DHT22;904;47.814;11.134;2023-01-29T00:24:21;-0.60;84.50
1812;DHT22;904;47.814;11.134;2023-01-29T00:26:50;-0.60;84.50
1812;DHT22;904;47.814;11.134;2023-01-29T00:29:18;-0.60;84.90
1812;DHT22;904;47.814;11.134;2023-01-29T00:31:46;-0.60;84.70
1812;DHT22;904;47.814;11.134;2023-01-29T00:34:14;-0.60;84.00
1812;DHT22;904;47.814;11.134;2023-01-29T00:36:41;-0.60;84.70
1812;DHT22;904;47.814;11.134;2023-01-29T00:39:10;-0.60;85.10
1812;DHT22;904;47.814;11.134;2023-01-29T00:41:39;-0.50;85.20
1812;DHT22;904;47.814;11.134;2023-01-29T00:44:24;-0.50;85.20
1812;DHT22;904;47.814;11.134;2023-01-29T00:47:08;-0.40;85.00
1812;DHT22;904;47.814;11.134;2023-01-29T00:49:55;-0.40;84.70
1812;DHT22;904;47.814;11.134;2023-01-29T00:52:23;-0.40;84.40
1812;DHT22;904;47.814;11.134;2023-01-29T00:54:53;-0.30;84.50
1812;DHT22;904;47.814;11.134;2023-01-29T00:57:22;-0.30;84.50
1812;DHT22;904;47.814;11.134;2023-01-29T00:59:50;-0.30;84.80
1812;DHT22;904;47.814;11.134;2023-01-29T01:02:18;-0.20;85.00
1812;DHT22;904;47.814;11.134;2023-01-29T01:05:03;-0.10;85.00
1812;DHT22;904;47.814;11.134;2023-01-29T01:07:33;-0.10;84.70
1812;DHT22;904;47.814;11.134;2023-01-29T01:10:00;-0.10;84.90
1812;DHT22;904;47.814;11.134;2023-01-29T01:12:47;-0.10;84.10
1812;DHT22;904;47.814;11.134;2023-01-29T01:15:15;0.00;84.20
1812;DHT22;904;47.814;11.134;2023-01-29T01:17:43;-0.10;83.90
1812;DHT22;904;47.814;11.134;2023-01-29T01:20:12;-0.10;84.20
1812;DHT22;904;47.814;11.134;2023-01-29T01:22:41;-0.10;84.60
1812;DHT22;904;47.814;11.134;2023-01-29T01:25:11;-0.10;83.80
1812;DHT22;904;47.814;11.134;2023-01-29T01:27:38;0.00;84.10
1812;DHT22;904;47.814;11.134;2023-01-29T01:30:11;0.00;83.70
1812;DHT22;904;47.814;11.134;2023-01-29T01:32:38;0.00;83.60
1812;DHT22;904;47.814;11.134;2023-01-29T01:35:07;-0.10;83.30
1812;DHT22;904;47.814;11.134;2023-01-29T01:37:35;-0.10;84.10
1812;DHT22;904;47.814;11.134;2023-01-29T01:40:04;-0.20;84.20
1812;DHT22;904;47.814;11.134;2023-01-29T01:42:38;-0.20;84.70
1812;DHT22;904;47.814;11.134;2023-01-29T01:45:19;-0.10;84.70
1812;DHT22;904;47.814;11.134;2023-01-29T01:47:49;-0.10;84.90
1812;DHT22;904;47.814;11.134;2023-01-29T01:50:21;-0.10;84.90
1812;DHT22;904;47.814;11.134;2023-01-29T01:52:51;0.00;84.10
1812;DHT22;904;47.814;11.134;2023-01-29T01:55:23;0.00;84.60
1812;DHT22;904;47.814;11.134;2023-01-29T01:57:55;0.00;85.00
1812;DHT22;904;47.814;11.134;2023-01-29T02:00:26;0.00;84.80
1812;DHT22;904;47.814;11.134;2023-01-29T02:02:59;0.00;85.20
1812;DHT22;904;47.814;11.134;2023-01-29T02:05:44;0.00;85.20
1812;DHT22;904;47.814;11.134;2023-01-29T02:08:36;0.10;85.20
1812;DHT22;904;47.814;11.134;2023-01-29T02:11:23;0.10;85.10
1812;DHT22;904;47.814;11.134;2023-01-29T02:13:51;0.00;85.80
1812;DHT22;904;47.814;11.134;2023-01-29T02:16:24;0.10;85.80
1812;DHT22;904;47.814;11.134;2023-01-29T02:18:52;0.10;86.00
1812;DHT22;904;47.814;11.134;2023-01-29T02:21:41;0.20;86.10
1812;DHT22;904;47.814;11.134;2023-01-29T02:30:30;0.20;86.10
1812;DHT22;904;47.814;11.134;2023-01-29T02:33:06;0.20;86.30
1812;DHT22;904;47.814;11.134;2023-01-29T02:35:41;0.30;86.40
1812;DHT22;904;47.814;11.134;2023-01-29T02:38:26;0.30;86.20
1812;DHT22;904;47.814;11.134;2023-01-29T02:40:59;0.30;86.00
1812;DHT22;904;47.814;11.134;2023-01-29T02:43:38;0.30;85.60
1812;DHT22;904;47.814;11.134;2023-01-29T02:46:17;0.30;85.20
1812;DHT22;904;47.814;11.134;2023-01-29T02:48:51;0.30;85.30
1812;DHT22;904;47.814;11.134;2023-01-29T02:51:25;0.30;85.50
1812;DHT22;904;47.814;11.134;2023-01-29T02:54:01;0.30;85.20
1812;DHT22;904;47.814;11.134;2023-01-29T02:56:34;0.40;85.20
1812;DHT22;904;47.814;11.134;2023-01-29T02:59:07;0.40;84.30
1812;DHT22;904;47.814;11.134;2023-01-29T03:01:43;0.40;84.00
1812;DHT22;904;47.814;11.134;2023-01-29T03:04:17;0.30;84.20
1812;DHT22;904;47.814;11.134;2023-01-29T03:06:49;0.20;84.70
1812;DHT22;904;47.814;11.134;2023-01-29T03:09:24;0.20;85.10
1812;DHT22;904;47.814;11.134;2023-01-29T03:11:57;0.30;85.40
1812;DHT22;904;47.814;11.134;2023-01-29T03:14:30;0.40;85.40
1812;DHT22;904;47.814;11.134;2023-01-29T03:17:21;0.40;85.00
1812;DHT22;904;47.814;11.134;2023-01-29T03:19:50;0.40;84.70
1812;DHT22;904;47.814;11.134;2023-01-29T03:22:18;0.30;84.70
1812;DHT22;904;47.814;11.134;2023-01-29T03:24:50;0.30;84.80
1812;DHT22;904;47.814;11.134;2023-01-29T03:27:38;0.40;84.70
1812;DHT22;904;47.814;11.134;2023-01-29T03:30:25;0.40;84.60
1812;DHT22;904;47.814;11.134;2023-01-29T03:33:14;0.40;84.40
1812;DHT22;904;47.814;11.134;2023-01-29T03:35:48;0.40;84.30
1812;DHT22;904;47.814;11.134;2023-01-29T03:38:18;0.40;84.20
1812;DHT22;904;47.814;11.134;2023-01-29T03:40:54;0.40;84.30
1812;DHT22;904;47.814;11.134;2023-01-29T03:43:32;0.30;84.00
1812;DHT22;904;47.814;11.134;2023-01-29T03:46:06;0.30;84.20
1812;DHT22;904;47.814;11.134;2023-01-29T03:48:39;0.30;84.10
1812;DHT22;904;47.814;11.134;2023-01-29T03:51:15;0.30;83.90
1812;DHT22;904;47.814;11.134;2023-01-29T03:53:49;0.30;84.30
1812;DHT22;904;47.814;11.134;2023-01-29T03:56:33;0.30;84.10
1812;DHT22;904;47.814;11.134;2023-01-29T03:59:05;0.30;84.10
1812;DHT22;904;47.814;11.134;2023-01-29T04:01:41;0.30;84.10
1812;DHT22;904;47.814;11.134;2023-01-29T04:04:17;0.30;84.70
1812;DHT22;904;47.814;11.134;2023-01-29T04:06:49;0.30;84.80
1812;DHT22;904;47.814;11.134;2023-01-29T04:09:22;0.30;84.80
1812;DHT22;904;47.814;11.134;2023-01-29T04:11:56;0.30;84.80
1812;DHT22;904;47.814;11.134;2023-01-29T04:14:26;0.30;84.70
1812;DHT22;904;47.814;11.134;2023-01-29T04:16:56;0.30;84.70
1812;DHT22;904;47.814;11.134;2023-01-29T04:19:30;0.30;84.50
1812;DHT22;904;47.814;11.134;2023-01-29T04:22:03;0.30;84.90
1812;DHT22;904;47.814;11.134;2023-01-29T04:24:32;0.30;84.80
1812;DHT22;904;47.814;11.134;2023-01-29T04:27:15;0.30;85.40
1812;DHT22;904;47.814;11.134;2023-01-29T04:30:00;0.30;84.50
1812;DHT22;904;47.814;11.134;2023-01-29T04:32:38;0.30;84.60
1812;DHT22;904;47.814;11.134;2023-01-29T04:35:20;0.30;85.40
1812;DHT22;904;47.814;11.134;2023-01-29T04:37:55;0.40;84.60
1812;DHT22;904;47.814;11.134;2023-01-29T04:40:28;0.30;84.50
1812;DHT22;904;47.814;11.134;2023-01-29T04:43:03;0.30;85.10
1812;DHT22;904;47.814;11.134;2023-01-29T04:45:38;0.30;85.40
1812;DHT22;904;47.814;11.134;2023-01-29T04:48:17;0.30;85.30
1812;DHT22;904;47.814;11.134;2023-01-29T04:50:55;0.30;85.80
1812;DHT22;904;47.814;11.134;2023-01-29T04:53:36;0.30;85.80
1812;DHT22;904;47.814;11.134;2023-01-29T04:56:12;0.40;85.80
1812;DHT22;904;47.814;11.134;2023-01-29T04:58:45;0.40;85.60
1812;DHT22;904;47.814;11.134;2023-01-29T05:01:16;0.40;85.50
1812;DHT22;904;47.814;11.134;2023-01-29T05:03:48;0.40;85.60
1812;DHT22;904;47.814;11.134;2023-01-29T05:06:18;0.40;85.70
1812;DHT22;904;47.814;11.134;2023-01-29T05:08:47;0.40;85.50
1812;DHT22;904;47.814;11.134;2023-01-29T05:11:16;0.40;85.60
1812;DHT22;904;47.814;11.134;2023-01-29T05:13:44;0.40;85.70
1812;DHT22;904;47.814;11.134;2023-01-29T05:16:15;0.40;86.00
1812;DHT22;904;47.814;11.134;2023-01-29T05:18:45;0.40;86.10
1812;DHT22;904;47.814;11.134;2023-01-29T05:21:13;0.40;85.90
1812;DHT22;904;47.814;11.134;2023-01-29T05:23:42;0.40;86.20
1812;DHT22;904;47.814;11.134;2023-01-29T05:26:18;0.40;86.20
1812;DHT22;904;47.814;11.134;2023-01-29T05:29:03;0.40;86.20
1812;DHT22;904;47.814;11.134;2023-01-29T05:31:31;0.40;86.40
1812;DHT22;904;47.814;11.134;2023-01-29T05:33:58;0.40;86.00
1812;DHT22;904;47.814;11.134;2023-01-29T05:36:26;0.50;86.30
1812;DHT22;904;47.814;11.134;2023-01-29T05:38:56;0.50;85.80
1812;DHT22;904;47.814;11.134;2023-01-29T05:41:23;0.50;85.80
1812;DHT22;904;47.814;11.134;2023-01-29T05:43:52;0.50;86.00
1812;DHT22;904;47.814;11.134;2023-01-29T05:46:19;0.50;86.00
1812;DHT22;904;47.814;11.134;2023-01-29T05:48:47;0.50;86.20
1812;DHT22;904;47.814;11.134;2023-01-29T05:51:14;0.50;86.10
1812;DHT22;904;47.814;11.134;2023-01-29T05:53:42;0.50;86.20
1812;DHT22;904;47.814;11.134;2023-01-29T05:56:11;0.50;86.20
1812;DHT22;904;47.814;11.134;2023-01-29T05:58:38;0.60;86.30
1812;DHT22;904;47.814;11.134;2023-01-29T06:01:10;0.60;86.00
1812;DHT22;904;47.814;11.134;2023-01-29T06:03:37;0.60;86.10
1812;DHT22;904;47.814;11.134;2023-01-29T06:06:08;0.60;85.90
1812;DHT22;904;47.814;11.134;2023-01-29T06:08:35;0.60;85.70
1812;DHT22;904;47.814;11.134;2023-01-29T06:11:03;0.60;85.80
1812;DHT22;904;47.814;11.134;2023-01-29T06:13:34;0.50;86.40
1812;DHT22;904;47.814;11.134;2023-01-29T06:16:04;0.60;86.40
1812;DHT22;904;47.814;11.134;2023-01-29T06:18:37;0.50;86.40
1812;DHT22;904;47.814;11.134;2023-01-29T06:21:06;0.60;86.90
1812;DHT22;904;47.814;11.134;2023-01-29T06:23:34;0.50;86.60
1812;DHT22;904;47.814;11.134;2023-01-29T06:26:03;0.60;87.00
1812;DHT22;904;47.814;11.134;2023-01-29T06:28:31;0.60;87.10
1812;DHT22;904;47.814;11.134;2023-01-29T06:31:01;0.60;86.60
1812;DHT22;904;47.814;11.134;2023-01-29T06:33:29;0.60;86.50
1812;DHT22;904;47.814;11.134;2023-01-29T06:35:56;0.60;86.40
1812;DHT22;904;47.814;11.134;2023-01-29T06:38:24;0.60;86.40
1812;DHT22;904;47.814;11.134;2023-01-29T06:40:52;0.60;86.00
1812;DHT22;904;47.814;11.134;2023-01-29T06:43:27;0.50;85.80
1812;DHT22;904;47.814;11.134;2023-01-29T06:45:56;0.40;86.20
1812;DHT22;904;47.814;11.134;2023-01-29T06:48:25;0.50;86.40
1812;DHT22;904;47.814;11.134;2023-01-29T06:50:52;0.40;86.20
1812;DHT22;904;47.814;11.134;2023-01-29T06:53:20;0.40;86.20
1812;DHT22;904;47.814;11.134;2023-01-29T06:55:51;0.30;86.20
1812;DHT22;904;47.814;11.134;2023-01-29T06:58:19;0.30;86.20
1812;DHT22;904;47.814;11.134;2023-01-29T07:00:46;0.30;86.60
1812;DHT22;904;47.814;11.134;2023-01-29T07:03:14;0.40;86.70
1812;DHT22;904;47.814;11.134;2023-01-29T07:05:48;0.40;87.00
1812;DHT22;904;47.814;11.134;2023-01-29T07:08:16;0.50;87.30
1812;DHT22;904;47.814;11.134;2023-01-29T07:10:43;0.60;87.40
1812;DHT22;904;47.814;11.134;2023-01-29T07:13:10;0.60;87.10
1812;DHT22;904;47.814;11.134;2023-01-29T07:15:38;0.80;87.60
1812;DHT22;904;47.814;11.134;2023-01-29T07:18:05;0.90;87.10
1812;DHT22;904;47.814;11.134;2023-01-29T07:20:38;1.00;85.40
1812;DHT22;904;47.814;11.134;2023-01-29T07:23:09;0.90;84.70
1812;DHT22;904;47.814;11.134;2023-01-29T07:25:38;0.90;84.60
1812;DHT22;904;47.814;11.134;2023-01-29T07:28:07;1.00;85.70
1812;DHT22;904;47.814;11.134;2023-01-29T07:30:35;1.00;84.80
1812;DHT22;904;47.814;11.134;2023-01-29T07:33:08;1.00;84.70
1812;DHT22;904;47.814;11.134;2023-01-29T07:35:36;1.00;83.90
1812;DHT22;904;47.814;11.134;2023-01-29T07:38:04;1.10;83.90
1812;DHT22;904;47.814;11.134;2023-01-29T07:40:34;1.10;83.90
1812;DHT22;904;47.814;11.134;2023-01-29T07:43:03;1.10;84.20
1812;DHT22;904;47.814;11.134;2023-01-29T07:45:33;1.10;83.10
1812;DHT22;904;47.814;11.134;2023-01-29T07:48:01;1.20;82.70
1812;DHT22;904;47.814;11.134;2023-01-29T07:50:30;1.20;82.30
1812;DHT22;904;47.814;11.134;2023-01-29T07:52:58;1.20;82.70
1812;DHT22;904;47.814;11.134;2023-01-29T07:55:26;1.40;80.70
1812;DHT22;904;47.814;11.134;2023-01-29T07:57:58;1.50;81.10
1812;DHT22;904;47.814;11.134;2023-01-29T08:00:26;1.70;81.50
1812;DHT22;904;47.814;11.134;2023-01-29T08:03:01;2.00;80.10
1812;DHT22;904;47.814;11.134;2023-01-29T08:05:29;2.30;79.20
1812;DHT22;904;47.814;11.134;2023-01-29T08:07:57;2.50;77.90
1812;DHT22;904;47.814;11.134;2023-01-29T08:10:27;2.90;79.40
1812;DHT22;904;47.814;11.134;2023-01-29T08:12:57;3.40;78.00
1812;DHT22;904;47.814;11.134;2023-01-29T08:15:25;3.80;74.70
1812;DHT22;904;47.814;11.134;2023-01-29T08:17:53;4.10;72.60
1812;DHT22;904;47.814;11.134;2023-01-29T08:20:21;4.50;71.40
1812;DHT22;904;47.814;11.134;2023-01-29T08:22:49;4.80;69.60
1812;DHT22;904;47.814;11.134;2023-01-29T08:25:24;4.90;66.30
1812;DHT22;904;47.814;11.134;2023-01-29T08:27:51;5.30;67.90
1812;DHT22;904;47.814;11.134;2023-01-29T08:30:20;5.50;64.40
1812;DHT22;904;47.814;11.134;2023-01-29T08:32:47;5.70;61.00
1812;DHT22;904;47.814;11.134;2023-01-29T08:35:15;5.80;62.20
1812;DHT22;904;47.814;11.134;2023-01-29T08:37:43;6.10;60.10
1812;DHT22;904;47.814;11.134;2023-01-29T08:40:11;6.40;59.40
1812;DHT22;904;47.814;11.134;2023-01-29T08:42:38;6.70;60.00
1812;DHT22;904;47.814;11.134;2023-01-29T08:45:08;6.90;57.00
1812;DHT22;904;47.814;11.134;2023-01-29T08:47:37;7.00;56.10
1812;DHT22;904;47.814;11.134;2023-01-29T08:50:05;7.50;56.20
1812;DHT22;904;47.814;11.134;2023-01-29T08:52:32;8.10;54.90
1812;DHT22;904;47.814;11.134;2023-01-29T08:55:00;8.30;52.00
1812;DHT22;904;47.814;11.134;2023-01-29T08:57:27;8.30;50.40
1812;DHT22;904;47.814;11.134;2023-01-29T08:59:54;8.50;49.70
1812;DHT22;904;47.814;11.134;2023-01-29T09:02:21;8.60;49.80
1812;DHT22;904;47.814;11.134;2023-01-29T09:04:50;8.90;49.50
1812;DHT22;904;47.814;11.134;2023-01-29T09:07:17;9.40;48.60
1812;DHT22;904;47.814;11.134;2023-01-29T09:09:46;9.50;46.40
1812;DHT22;904;47.814;11.134;2023-01-29T09:12:13;9.70;46.80
1812;DHT22;904;47.814;11.134;2023-01-29T09:14:40;10.00;44.30
1812;DHT22;904;47.814;11.134;2023-01-29T09:17:07;10.30;44.60
1812;DHT22;904;47.814;11.134;2023-01-29T09:19:38;10.60;44.20
1812;DHT22;904;47.814;11.134;2023-01-29T09:22:07;11.10;43.50
1812;DHT22;904;47.814;11.134;2023-01-29T09:24:35;11.30;41.70
1812;DHT22;904;47.814;11.134;2023-01-29T09:27:02;11.40;42.00
1812;DHT22;904;47.814;11.134;2023-01-29T09:29:29;11.80;41.70
1812;DHT22;904;47.814;11.134;2023-01-29T09:31:56;12.00;40.30
1812;DHT22;904;47.814;11.134;2023-01-29T09:34:23;12.00;40.00
1812;DHT22;904;47.814;11.134;2023-01-29T09:36:51;12.20;40.40
1812;DHT22;904;47.814;11.134;2023-01-29T09:39:20;12.60;40.60
1812;DHT22;904;47.814;11.134;2023-01-29T09:41:57;13.00;39.10
1812;DHT22;904;47.814;11.134;2023-01-29T09:44:35;13.40;38.00
1812;DHT22;904;47.814;11.134;2023-01-29T09:47:12;13.50;36.70
1812;DHT22;904;47.814;11.134;2023-01-29T09:49:42;13.70;37.00
1812;DHT22;904;47.814;11.134;2023-01-29T09:52:16;14.00;36.10
1812;DHT22;904;47.814;11.134;2023-01-29T09:54:52;14.20;35.20
1812;DHT22;904;47.814;11.134;2023-01-29T09:57:24;14.40;34.60
1812;DHT22;904;47.814;11.134;2023-01-29T09:59:53;14.50;32.80
1812;DHT22;904;47.814;11.134;2023-01-29T10:02:41;14.50;33.60
1812;DHT22;904;47.814;11.134;2023-01-29T10:05:36;14.70;32.90
1812;DHT22;904;47.814;11.134;2023-01-29T10:08:40;14.80;32.40
1812;DHT22;904;47.814;11.134;2023-01-29T10:11:20;15.00;32.80
1812;DHT22;904;47.814;11.134;2023-01-29T10:13:57;15.20;32.70
1812;DHT22;904;47.814;11.134;2023-01-29T10:16:37;15.50;32.30
1812;DHT22;904;47.814;11.134;2023-01-29T10:22:22;16.10;30.60
1812;DHT22;904;47.814;11.134;2023-01-29T10:24:57;16.20;30.40
1812;DHT22;904;47.814;11.134;2023-01-29T10:27:31;16.60;29.60
1812;DHT22;904;47.814;11.134;2023-01-29T10:30:00;16.70;29.40
1812;DHT22;904;47.814;11.134;2023-01-29T10:32:29;16.80;29.10
1812;DHT22;904;47.814;11.134;2023-01-29T10:34:59;16.80;28.60
1812;DHT22;904;47.814;11.134;2023-01-29T10:37:38;16.90;28.10
1812;DHT22;904;47.814;11.134;2023-01-29T10:40:18;16.90;28.30
1812;DHT22;904;47.814;11.134;2023-01-29T10:42:52;16.90;28.20
1812;DHT22;904;47.814;11.134;2023-01-29T10:45:30;16.90;28.00
1812;DHT22;904;47.814;11.134;2023-01-29T10:48:35;17.10;28.40
1812;DHT22;904;47.814;11.134;2023-01-29T10:51:17;17.40;28.60
1812;DHT22;904;47.814;11.134;2023-01-29T10:53:56;18.10;27.00
1812;DHT22;904;47.814;11.134;2023-01-29T10:56:46;18.40;27.90
1812;DHT22;904;47.814;11.134;2023-01-29T10:59:37;18.80;27.50
1812;DHT22;904;47.814;11.134;2023-01-29T11:02:13;19.60;26.50
1812;DHT22;904;47.814;11.134;2023-01-29T11:04:43;20.10;26.10
1812;DHT22;904;47.814;11.134;2023-01-29T11:07:11;19.90;25.00
1812;DHT22;904;47.814;11.134;2023-01-29T11:09:42;19.30;24.20
1812;DHT22;904;47.814;11.134;2023-01-29T11:12:12;18.50;24.60
1812;DHT22;904;47.814;11.134;2023-01-29T11:14:44;17.70;24.80
1812;DHT22;904;47.814;11.134;2023-01-29T11:17:16;17.20;25.90
1812;DHT22;904;47.814;11.134;2023-01-29T11:19:46;16.60;25.40
1812;DHT22;904;47.814;11.134;2023-01-29T11:22:15;15.90;25.80
1812;DHT22;904;47.814;11.134;2023-01-29T11:24:44;15.20;26.90
1812;DHT22;904;47.814;11.134;2023-01-29T11:27:20;14.80;27.60
1812;DHT22;904;47.814;11.134;2023-01-29T11:29:52;14.30;28.20
1812;DHT22;904;47.814;11.134;2023-01-29T11:32:29;14.00;28.70
1812;DHT22;904;47.814;11.134;2023-01-29T11:35:00;13.50;28.80
1812;DHT22;904;47.814;11.134;2023-01-29T11:37:33;13.00;29.30
1812;DHT22;904;47.814;11.134;2023-01-29T11:40:07;12.40;29.80
1812;DHT22;904;47.814;11.134;2023-01-29T11:42:54;11.90;30.10
1812;DHT22;904;47.814;11.134;2023-01-29T11:45:27;11.30;30.50
1812;DHT22;904;47.814;11.134;2023-01-29T11:47:58;10.80;31.20
1812;DHT22;904;47.814;11.134;2023-01-29T11:50:26;10.40;32.60
1812;DHT22;904;47.814;11.134;2023-01-29T11:52:55;10.00;33.40
1812;DHT22;904;47.814;11.134;2023-01-29T11:55:24;9.70;35.00
1812;DHT22;904;47.814;11.134;2023-01-29T11:57:53;9.50;35.90
1812;DHT22;904;47.814;11.134;2023-01-29T12:00:28;9.30;36.60
1812;DHT22;904;47.814;11.134;2023-01-29T12:03:00;9.00;36.70
1812;DHT22;904;47.814;11.134;2023-01-29T12:05:29;8.90;37.20
1812;DHT22;904;47.814;11.134;2023-01-29T12:07:58;8.80;37.70
1812;DHT22;904;47.814;11.134;2023-01-29T12:10:31;8.80;37.80
1812;DHT22;904;47.814;11.134;2023-01-29T12:13:06;8.70;38.10
1812;DHT22;904;47.814;11.134;2023-01-29T12:15:46;8.50;38.40
1812;DHT22;904;47.814;11.134;2023-01-29T12:18:17;8.50;38.50
1812;DHT22;904;47.814;11.134;2023-01-29T12:20:50;8.50;38.70
1812;DHT22;904;47.814;11.134;2023-01-29T12:23:26;8.50;38.60
1812;DHT22;904;47.814;11.134;2023-01-29T12:26:00;8.50;38.70
1812;DHT22;904;47.814;11.134;2023-01-29T12:28:39;8.30;37.60
1812;DHT22;904;47.814;11.134;2023-01-29T12:31:19;8.20;37.80
1812;DHT22;904;47.814;11.134;2023-01-29T12:33:56;8.20;38.20
1812;DHT22;904;47.814;11.134;2023-01-29T12:36:29;8.60;39.00
1812;DHT22;904;47.814;11.134;2023-01-29T12:38:57;9.10;38.50
1812;DHT22;904;47.814;11.134;2023-01-29T12:41:31;9.60;37.40
1812;DHT22;904;47.814;11.134;2023-01-29T12:44:07;10.30;36.60
1812;DHT22;904;47.814;11.134;2023-01-29T12:46:42;10.90;35.50
1812;DHT22;904;47.814;11.134;2023-01-29T12:49:14;11.10;34.40
1812;DHT22;904;47.814;11.134;2023-01-29T12:51:48;11.10;34.10
1812;DHT22;904;47.814;11.134;2023-01-29T12:54:20;10.90;34.30
1812;DHT22;904;47.814;11.134;2023-01-29T12:56:51;10.80;34.70
1812;DHT22;904;47.814;11.134;2023-01-29T12:59:27;10.70;34.00
1812;DHT22;904;47.814;11.134;2023-01-29T13:02:01;10.60;34.70
1812;DHT22;904;47.814;11.134;2023-01-29T13:04:36;10.60;35.00
1812;DHT22;904;47.814;11.134;2023-01-29T13:07:11;10.80;35.30
1812;DHT22;904;47.814;11.134;2023-01-29T13:09:42;11.10;35.00
1812;DHT22;904;47.814;11.134;2023-01-29T13:12:13;11.20;34.20
1812;DHT22;904;47.814;11.134;2023-01-29T13:14:46;11.10;33.70
1812;DHT22;904;47.814;11.134;2023-01-29T13:17:22;10.90;33.70
1812;DHT22;904;47.814;11.134;2023-01-29T13:19:52;10.80;33.60
1812;DHT22;904;47.814;11.134;2023-01-29T13:22:24;10.70;33.90
1812;DHT22;904;47.814;11.134;2023-01-29T13:24:52;10.50;33.90
1812;DHT22;904;47.814;11.134;2023-01-29T13:27:23;10.40;33.90
1812;DHT22;904;47.814;11.134;2023-01-29T13:29:51;10.30;34.10
1812;DHT22;904;47.814;11.134;2023-01-29T13:32:23;10.10;34.40
1812;DHT22;904;47.814;11.134;2023-01-29T13:34:53;9.90;35.20
1812;DHT22;904;47.814;11.134;2023-01-29T13:37:28;9.80;35.70
1812;DHT22;904;47.814;11.134;2023-01-29T13:39:58;9.60;35.80
1812;DHT22;904;47.814;11.134;2023-01-29T13:42:37;9.40;36.40
1812;DHT22;904;47.814;11.134;2023-01-29T13:45:07;9.30;36.50
1812;DHT22;904;47.814;11.134;2023-01-29T13:47:38;9.20;37.20
1812;DHT22;904;47.814;11.134;2023-01-29T13:50:07;9.20;36.80
1812;DHT22;904;47.814;11.134;2023-01-29T13:52:38;9.10;37.30
1812;DHT22;904;47.814;11.134;2023-01-29T13:55:21;9.10;37.30
1812;DHT22;904;47.814;11.134;2023-01-29T13:57:52;9.00;36.80
1812;DHT22;904;47.814;11.134;2023-01-29T14:03:44;8.80;37.60
1812;DHT22;904;47.814;11.134;2023-01-29T14:06:39;8.70;37.70
1812;DHT22;904;47.814;11.134;2023-01-29T14:09:29;8.60;37.90
1812;DHT22;904;47.814;11.134;2023-01-29T14:11:56;8.50;38.20
1812;DHT22;904;47.814;11.134;2023-01-29T14:14:49;8.30;38.00
1812;DHT22;904;47.814;11.134;2023-01-29T14:17:18;8.10;38.60
1812;DHT22;904;47.814;11.134;2023-01-29T14:19:48;7.90;39.10
1812;DHT22;904;47.814;11.134;2023-01-29T14:22:20;7.80;39.40
1812;DHT22;904;47.814;11.134;2023-01-29T14:24:48;7.70;39.70
1812;DHT22;904;47.814;11.134;2023-01-29T14:27:23;7.40;39.90
1812;DHT22;904;47.814;11.134;2023-01-29T14:29:51;7.30;40.30
1812;DHT22;904;47.814;11.134;2023-01-29T14:32:24;7.20;40.70
1812;DHT22;904;47.814;11.134;2023-01-29T14:34:56;7.10;41.00
1812;DHT22;904;47.814;11.134;2023-01-29T14:37:30;6.90;41.30
1812;DHT22;904;47.814;11.134;2023-01-29T14:40:06;6.80;41.70
1812;DHT22;904;47.814;11.134;2023-01-29T14:42:44;6.60;41.70
1812;DHT22;904;47.814;11.134;2023-01-29T14:45:22;6.50;42.00
1812;DHT22;904;47.814;11.134;2023-01-29T14:50:54;6.30;42.50
1812;DHT22;904;47.814;11.134;2023-01-29T14:53:31;6.20;42.30
1812;DHT22;904;47.814;11.134;2023-01-29T14:56:11;6.10;42.80
1812;DHT22;904;47.814;11.134;2023-01-29T14:58:43;5.90;42.70
1812;DHT22;904;47.814;11.134;2023-01-29T15:01:18;5.90;43.10
1812;DHT22;904;47.814;11.134;2023-01-29T15:03:49;5.80;43.50
1812;DHT22;904;47.814;11.134;2023-01-29T15:06:23;5.60;43.40
1812;DHT22;904;47.814;11.134;2023-01-29T15:08:59;5.40;43.80
1812;DHT22;904;47.814;11.134;2023-01-29T15:11:34;5.40;44.40
1812;DHT22;904;47.814;11.134;2023-01-29T15:14:25;5.20;44.80
1812;DHT22;904;47.814;11.134;2023-01-29T15:17:17;5.10;45.40
1812;DHT22;904;47.814;11.134;2023-01-29T15:20:28;4.90;45.90
1812;DHT22;904;47.814;11.134;2023-01-29T15:22:58;4.80;46.40
1812;DHT22;904;47.814;11.134;2023-01-29T15:25:29;4.70;46.90
1812;DHT22;904;47.814;11.134;2023-01-29T15:27:59;4.70;46.90
1812;DHT22;904;47.814;11.134;2023-01-29T15:30:31;4.60;47.10
1812;DHT22;904;47.814;11.134;2023-01-29T15:33:00;4.40;47.30
1812;DHT22;904;47.814;11.134;2023-01-29T15:35:32;4.30;48.40
1812;DHT22;904;47.814;11.134;2023-01-29T15:38:14;4.20;48.30
1812;DHT22;904;47.814;11.134;2023-01-29T15:40:57;4.20;49.20
1812;DHT22;904;47.814;11.134;2023-01-29T15:43:30;4.00;49.30
1812;DHT22;904;47.814;11.134;2023-01-29T15:45:59;3.90;49.70
1812;DHT22;904;47.814;11.134;2023-01-29T15:48:30;3.80;50.20
1812;DHT22;904;47.814;11.134;2023-01-29T15:50:59;3.70;50.10
1812;DHT22;904;47.814;11.134;2023-01-29T15:53:35;3.60;50.20
1812;DHT22;904;47.814;11.134;2023-01-29T15:56:07;3.50;50.80
1812;DHT22;904;47.814;11.134;2023-01-29T15:58:35;3.40;51.30
1812;DHT22;904;47.814;11.134;2023-01-29T16:01:04;3.40;52.10
1812;DHT22;904;47.814;11.134;2023-01-29T16:03:32;3.40;52.70
1812;DHT22;904;47.814;11.134;2023-01-29T16:06:01;3.30;52.50
1812;DHT22;904;47.814;11.134;2023-01-29T16:08:33;3.30;52.50
1812;DHT22;904;47.814;11.134;2023-01-29T16:11:04;3.30;52.60
1812;DHT22;904;47.814;11.134;2023-01-29T16:13:34;3.20;52.50
1812;DHT22;904;47.814;11.134;2023-01-29T16:16:03;3.10;52.90
1812;DHT22;904;47.814;11.134;2023-01-29T16:18:37;3.10;53.00
1812;DHT22;904;47.814;11.134;2023-01-29T16:21:08;3.00;53.30
1812;DHT22;904;47.814;11.134;2023-01-29T16:23:42;3.00;53.50
1812;DHT22;904;47.814;11.134;2023-01-29T16:26:15;2.90;53.50
1812;DHT22;904;47.814;11.134;2023-01-29T16:28:44;2.80;53.90
1812;DHT22;904;47.814;11.134;2023-01-29T16:31:20;2.80;54.30
1812;DHT22;904;47.814;11.134;2023-01-29T16:33:55;2.70;54.50
1812;DHT22;904;47.814;11.134;2023-01-29T16:36:29;2.70;54.80
1812;DHT22;904;47.814;11.134;2023-01-29T16:39:11;2.60;54.70
1812;DHT22;904;47.814;11.134;2023-01-29T16:41:42;2.50;54.80
1812;DHT22;904;47.814;11.134;2023-01-29T16:44:31;2.40;55.00
1812;DHT22;904;47.814;11.134;2023-01-29T16:47:26;2.40;55.50
1812;DHT22;904;47.814;11.134;2023-01-29T16:50:22;2.30;55.60
1812;DHT22;904;47.814;11.134;2023-01-29T16:52:56;2.30;55.80
1812;DHT22;904;47.814;11.134;2023-01-29T16:55:32;2.20;55.60
1812;DHT22;904;47.814;11.134;2023-01-29T16:58:07;2.10;56.60
1812;DHT22;904;47.814;11.134;2023-01-29T17:00:45;2.00;56.30
1812;DHT22;904;47.814;11.134;2023-01-29T17:03:16;1.90;57.10
1812;DHT22;904;47.814;11.134;2023-01-29T17:05:49;1.80;57.30